Zanesville Municipal Airport
KZZV : now visible

Airfield :











YOU CAN JOIN US ON...

 
LOGIN :

Register | Disclaimer

   EN    FR    IT 

 









Legend :    VFR   Marginal VFR   IFR   Intensive IFR   Very Intensive IFR
Visi :
Ceiling :
>= 8 km
>= 3000ft
5 to 8 km
1000 to 3000 ft
1500m to 5 km
500 to 1000 ft
800 to 1500m
200 to 500 ft
< 800m
< 200 ft
Symbols :   Thunderstorms  Fog  Heavy snow  Heavy precipitations  Wind > 20 kt






- Airport Elevation : 900 ft


KZZV - Zanesville Municipal

CURRENT METAR :
  • 110253Z AUTO 27005KT 10SM FEW031 M03/M09 A3029 RMK AO2 SLP265 T10281089 51017

EXPIRED METARs :
  • 110153Z AUTO 28010KT 10SM FEW028 FEW033 M03/M09 A3028 RMK AO2 SLP263 T10281089
  • 110053Z AUTO 28007KT 10SM SCT026 BKN034 M02/M08 A3028 RMK AO2 SLP260 T10221083
  • 110022Z AUTO 24007KT 10SM SCT026 OVC032 M02/M08 A3027 RMK AO2 T10221078

TAF KZZV
Valid from the 11 at 00:00 until the 12 at 00:00 UTC


102320Z 1100/1124 27008KT P6SM OVC025
FM110300 26006KT P6SM SCT250
FM111500 25010G18KT P6SM SCT050



MET'MAP, your aeronautical weather chart ! - Copyright ORBIFLY December 2007 - Disclaimer

ORBIFLY MET'MAP TEAM :

Programming & Development : Alexandra Zaïnal
Concept & original design : Baudouin d'Aumeries
Assistance for programming : Marc-Olivier Méhu
Technical & hardware support : Manuel Goepfert

Contact : metmap@orbifly.com




SOURCES & CREDITS :

   NOAA       Earth
Advisory